Taiheimaru — JM6135 — position and weather

sailwx.info

Track history (hours):
 
Tides and Currents Weather Stations Pressure Air Temp Water Temp Dewpoint Dewpoint Depression Visibility Wind Speed Wind Dir Waves Ship Positions

Taiheimaru

Last reported at 2014-Oct-02 06:32 UTC. Time now 2014-Oct-02 16:31 UTC.
Position N 34°12' E 132°32'.

Length 78 m.

Type: Cargo ship. MMSI: 431400082.

Date/timePositionNaut miles runAvg speedWind from/ knotsBaromVisibWave heightAir tempDewpointWater temp
2014-Oct-02 06:32N 34°12' E 132°32'1010.4
2014-Oct-02 05:33N 34°21' E 132°26'0 0.1
2014-Oct-02 04:33N 34°21' E 132°26'0 0.0
2014-Oct-02 03:33N 34°21' E 132°26'0 0.1
2014-Oct-02 02:33N 34°21' E 132°26'133 8.3
2014-Oct-01 10:30N 34°36' E 135°07'7 7.7
2014-Oct-01 09:33N 34°40' E 135°14'0 0.0
2014-Oct-01 08:27N 34°40' E 135°14'0 0.0
2014-Oct-01 07:30N 34°40' E 135°14'0 0.0
2014-Oct-01 06:24N 34°40' E 135°14'0 0.0
2014-Oct-01 05:24N 34°40' E 135°14'0 0.0
2014-Oct-01 04:24N 34°40' E 135°14'0 0.0
2014-Oct-01 03:30N 34°40' E 135°14'0 0.4
2014-Oct-01 02:32N 34°39' E 135°15'1 0.7
2014-Oct-01 01:23N 34°38' E 135°15'7 8.6
2014-Oct-01 00:33N 34°35' E 135°07'131 9.4
2014-Sep-30 10:33N 34°15' E 132°30'6 6.2
2014-Sep-30 09:33N 34°21' E 132°31'0 0.1
2014-Sep-30 08:31N 34°21' E 132°31'0 0.0
2014-Sep-30 07:16N 34°21' E 132°31'0 0.0
2014-Sep-30 06:31N 34°21' E 132°31'0 0.0
2014-Sep-30 05:31N 34°21' E 132°31'0 0.0
2014-Sep-30 04:31N 34°21' E 132°31'0 0.0
2014-Sep-30 03:31N 34°21' E 132°31'5 5.2
2014-Sep-30 02:32N 34°16' E 132°30'11 0.5
2014-Sep-29 05:27N 34°07' E 132°23'130 7.2
2014-Sep-28 11:20N 34°36' E 134°56'810.9
2014-Sep-28 10:33N 34°36' E 135°07'7 7.0
2014-Sep-28 09:33N 34°41' E 135°13'0 0.1
2014-Sep-28 08:27N 34°41' E 135°13'0 0.0
2014-Sep-28 07:24N 34°41' E 135°13'0 0.0
2014-Sep-28 06:30N 34°41' E 135°13'0 0.0
2014-Sep-28 05:30N 34°41' E 135°13'0 0.0
2014-Sep-28 04:30N 34°41' E 135°13'0 0.0
2014-Sep-28 03:30N 34°41' E 135°13'0 0.0
2014-Sep-28 02:30N 34°41' E 135°13'2 2.0
2014-Sep-28 01:33N 34°40' E 135°15'1 0.8
2014-Sep-28 00:27N 34°40' E 135°14'0 0.0
2014-Sep-27 23:33N 34°40' E 135°14'1 1.2
2014-Sep-27 22:33N 34°38' E 135°15'0 0.0
2014-Sep-27 21:30N 34°38' E 135°15'0 0.0
2014-Sep-27 20:24N 34°38' E 135°15'0 0.0
2014-Sep-27 19:33N 34°38' E 135°15'0 0.0
2014-Sep-27 18:33N 34°38' E 135°15'0 0.0
2014-Sep-27 17:30N 34°38' E 135°15'0 0.0
2014-Sep-27 16:30N 34°38' E 135°15'0 0.0
2014-Sep-27 15:30N 34°38' E 135°15'0 0.0
2014-Sep-27 14:30N 34°38' E 135°15'2 2.5
2014-Sep-27 13:33N 34°37' E 135°13'  
2014-Sep-24 04:33N 34°37' E 134°58'10 9.6
2014-Sep-24 03:33N 34°36' E 135°09'5 4.3
2014-Sep-24 02:17N 34°39' E 135°14'0 0.0
2014-Sep-24 01:32N 34°39' E 135°14'0 0.4
2014-Sep-24 00:24N 34°39' E 135°15'1 0.9
2014-Sep-23 23:25N 34°38' E 135°15'0 0.0
2014-Sep-23 22:31N 34°38' E 135°15'0 0.0
2014-Sep-23 21:25N 34°38' E 135°15'0 0.0
2014-Sep-23 20:25N 34°38' E 135°15'8 9.3
2014-Sep-23 19:33N 34°35' E 135°06'140 9.4
2014-Sep-23 04:33N 34°08' E 132°20'  
Track history (hours):
 
Tides and Currents Weather Stations Pressure Air Temp Water Temp Dewpoint Dewpoint Depression Visibility Wind Speed Wind Dir Waves Ship Positions

Taiheimaru

Last reported at 2014-Oct-02 06:32 UTC. Time now 2014-Oct-02 16:31 UTC.
Position N 34°12' E 132°32'.

Length 78 m.

Type: Cargo ship. MMSI: 431400082.

Date/timePositionNaut miles runAvg speedWind from/ knotsBaromVisibWave heightAir tempDewpointWater temp
2014-Oct-02 06:32N 34°12' E 132°32'1010.4
2014-Oct-02 05:33N 34°21' E 132°26'0 0.1
2014-Oct-02 04:33N 34°21' E 132°26'0 0.0
2014-Oct-02 03:33N 34°21' E 132°26'0 0.1
2014-Oct-02 02:33N 34°21' E 132°26'133 8.3
2014-Oct-01 10:30N 34°36' E 135°07'7 7.7
2014-Oct-01 09:33N 34°40' E 135°14'0 0.0
2014-Oct-01 08:27N 34°40' E 135°14'0 0.0
2014-Oct-01 07:30N 34°40' E 135°14'0 0.0
2014-Oct-01 06:24N 34°40' E 135°14'0 0.0
2014-Oct-01 05:24N 34°40' E 135°14'0 0.0
2014-Oct-01 04:24N 34°40' E 135°14'0 0.0
2014-Oct-01 03:30N 34°40' E 135°14'0 0.4
2014-Oct-01 02:32N 34°39' E 135°15'1 0.7
2014-Oct-01 01:23N 34°38' E 135°15'7 8.6
2014-Oct-01 00:33N 34°35' E 135°07'131 9.4
2014-Sep-30 10:33N 34°15' E 132°30'6 6.2
2014-Sep-30 09:33N 34°21' E 132°31'0 0.1
2014-Sep-30 08:31N 34°21' E 132°31'0 0.0
2014-Sep-30 07:16N 34°21' E 132°31'0 0.0
2014-Sep-30 06:31N 34°21' E 132°31'0 0.0
2014-Sep-30 05:31N 34°21' E 132°31'0 0.0
2014-Sep-30 04:31N 34°21' E 132°31'0 0.0
2014-Sep-30 03:31N 34°21' E 132°31'5 5.2
2014-Sep-30 02:32N 34°16' E 132°30'11 0.5
2014-Sep-29 05:27N 34°07' E 132°23'130 7.2
2014-Sep-28 11:20N 34°36' E 134°56'810.9
2014-Sep-28 10:33N 34°36' E 135°07'7 7.0
2014-Sep-28 09:33N 34°41' E 135°13'0 0.1
2014-Sep-28 08:27N 34°41' E 135°13'0 0.0
2014-Sep-28 07:24N 34°41' E 135°13'0 0.0
2014-Sep-28 06:30N 34°41' E 135°13'0 0.0
2014-Sep-28 05:30N 34°41' E 135°13'0 0.0
2014-Sep-28 04:30N 34°41' E 135°13'0 0.0
2014-Sep-28 03:30N 34°41' E 135°13'0 0.0
2014-Sep-28 02:30N 34°41' E 135°13'2 2.0
2014-Sep-28 01:33N 34°40' E 135°15'1 0.8
2014-Sep-28 00:27N 34°40' E 135°14'0 0.0
2014-Sep-27 23:33N 34°40' E 135°14'1 1.2
2014-Sep-27 22:33N 34°38' E 135°15'0 0.0
2014-Sep-27 21:30N 34°38' E 135°15'0 0.0
2014-Sep-27 20:24N 34°38' E 135°15'0 0.0
2014-Sep-27 19:33N 34°38' E 135°15'0 0.0
2014-Sep-27 18:33N 34°38' E 135°15'0 0.0
2014-Sep-27 17:30N 34°38' E 135°15'0 0.0
2014-Sep-27 16:30N 34°38' E 135°15'0 0.0
2014-Sep-27 15:30N 34°38' E 135°15'0 0.0
2014-Sep-27 14:30N 34°38' E 135°15'2 2.5
2014-Sep-27 13:33N 34°37' E 135°13'  
2014-Sep-24 04:33N 34°37' E 134°58'10 9.6
2014-Sep-24 03:33N 34°36' E 135°09'5 4.3
2014-Sep-24 02:17N 34°39' E 135°14'0 0.0
2014-Sep-24 01:32N 34°39' E 135°14'0 0.4
2014-Sep-24 00:24N 34°39' E 135°15'1 0.9
2014-Sep-23 23:25N 34°38' E 135°15'0 0.0
2014-Sep-23 22:31N 34°38' E 135°15'0 0.0
2014-Sep-23 21:25N 34°38' E 135°15'0 0.0
2014-Sep-23 20:25N 34°38' E 135°15'8 9.3
2014-Sep-23 19:33N 34°35' E 135°06'140 9.4
2014-Sep-23 04:33N 34°08' E 132°20'  

Dump ship's entire track history